Super Express — WAB6372 — position and weather

sailwx.info

Track history (hours):
 
Tides and Currents Weather Stations Pressure Air Temp Water Temp Dewpoint Dewpoint Depression Visibility Wind Speed Wind Dir Waves Ship Positions

Super Express

Owner: CATALINA CHANNEL EXPRESS, Long Beach, CA. More information available from US FCC via Universal Licensing System and Coast Guard Vessel Documentation Center.

Last reported at 2018-Jan-20 21:29 UTC. Time now 2018-Jan-21 04:53 UTC.
Position N 33°28' W 117°42'.

Length 45 m; draft 1 m.

Type: High speed craft. MMSI: 366943940.

Date/timePositionNaut miles runAvg speedWind from/ knotsBaromVisibWave heightAir tempDewpointWater temp
2018-Jan-20 21:29N 33°28' W 117°42'0 0.0
2018-Jan-20 21:00N 33°28' W 117°42'0 0.0
2018-Jan-20 20:30N 33°28' W 117°42'0 0.0
2018-Jan-20 19:57N 33°28' W 117°42'0 0.0
2018-Jan-20 19:29N 33°28' W 117°42'3 6.2
2018-Jan-20 18:59N 33°26' W 117°45'4 7.1
2018-Jan-20 18:29N 33°25' W 117°49'713.7
2018-Jan-20 18:00N 33°28' W 117°42'0 0.0
2018-Jan-20 17:26N 33°28' W 117°42'0 0.0
2018-Jan-20 16:57N 33°28' W 117°42'0 0.0
2018-Jan-20 16:30N 33°28' W 117°42'0 0.0
2018-Jan-20 03:07N 33°28' W 117°42'0 0.0
2018-Jan-20 03:00N 33°28' W 117°42'0 0.0
2018-Jan-20 02:30N 33°28' W 117°42'0 0.0
2018-Jan-20 02:01N 33°28' W 117°42'713.9
2018-Jan-20 01:30N 33°26' W 117°50'0 0.2
2018-Jan-19 22:53N 33°25' W 117°50'719.3
2018-Jan-19 22:30N 33°28' W 117°42'0 0.0
2018-Jan-19 21:58N 33°28' W 117°42'0 0.0
2018-Jan-19 21:30N 33°28' W 117°42'2 5.0
2018-Jan-19 21:00N 33°27' W 117°44'7 2.3
2018-Jan-19 18:11N 33°25' W 117°52'425.8
2018-Jan-19 18:00N 33°26' W 117°47'5 9.3
2018-Jan-19 17:30N 33°28' W 117°42'0 0.1
2018-Jan-19 16:30N 33°28' W 117°41'0 0.0
2018-Jan-19 02:10N 33°28' W 117°42'0 0.0
2018-Jan-19 02:00N 33°28' W 117°42'815.8
2018-Jan-19 01:30N 33°25' W 117°51'1624.9
2018-Jan-19 00:52N 33°23' W 118°10'8 9.6
2018-Jan-18 23:59N 33°21' W 118°19'1 0.3
2018-Jan-18 19:06N 33°22' W 118°18'324.5
2018-Jan-18 19:00N 33°22' W 118°15'1224.7
2018-Jan-18 18:30N 33°24' W 118°01'1224.5
2018-Jan-18 18:01N 33°26' W 117°46'4 8.2
2018-Jan-18 17:30N 33°28' W 117°42'0 0.0
2018-Jan-18 17:00N 33°28' W 117°42'0 0.0
2018-Jan-18 03:06N 33°28' W 117°42'0 0.0
2018-Jan-18 03:00N 33°28' W 117°42'0 0.0
2018-Jan-18 02:30N 33°28' W 117°42'0 0.0
2018-Jan-18 02:00N 33°28' W 117°42'611.8
2018-Jan-18 01:30N 33°26' W 117°48'1626.6
2018-Jan-18 00:54N 33°23' W 118°07'10 7.4
2018-Jan-17 23:30N 33°21' W 118°20'  
2018-Jan-12 02:36N 33°28' W 117°42'0 0.0
2018-Jan-12 02:30N 33°28' W 117°42'0 0.0
2018-Jan-12 02:00N 33°28' W 117°42'714.8
2018-Jan-12 01:30N 33°25' W 117°50'2225.1
2018-Jan-12 00:38N 33°21' W 118°16'3 0.5
2018-Jan-11 19:03N 33°21' W 118°19'2425.9
2018-Jan-11 18:08N 33°26' W 117°51'425.8
2018-Jan-11 18:00N 33°27' W 117°47'4 3.8
2018-Jan-11 16:52N 33°28' W 117°42'0 0.0
2018-Jan-11 02:15N 33°28' W 117°42'0 0.0
2018-Jan-11 01:59N 33°28' W 117°42'714.7
2018-Jan-11 01:30N 33°26' W 117°50'  
Track history (hours):
 
Tides and Currents Weather Stations Pressure Air Temp Water Temp Dewpoint Dewpoint Depression Visibility Wind Speed Wind Dir Waves Ship Positions

Super Express

Owner: CATALINA CHANNEL EXPRESS, Long Beach, CA. More information available from US FCC via Universal Licensing System and Coast Guard Vessel Documentation Center.

Last reported at 2018-Jan-20 21:29 UTC. Time now 2018-Jan-21 04:53 UTC.
Position N 33°28' W 117°42'.

Length 45 m; draft 1 m.

Type: High speed craft. MMSI: 366943940.

Date/timePositionNaut miles runAvg speedWind from/ knotsBaromVisibWave heightAir tempDewpointWater temp
2018-Jan-20 21:29N 33°28' W 117°42'0 0.0
2018-Jan-20 21:00N 33°28' W 117°42'0 0.0
2018-Jan-20 20:30N 33°28' W 117°42'0 0.0
2018-Jan-20 19:57N 33°28' W 117°42'0 0.0
2018-Jan-20 19:29N 33°28' W 117°42'3 6.2
2018-Jan-20 18:59N 33°26' W 117°45'4 7.1
2018-Jan-20 18:29N 33°25' W 117°49'713.7
2018-Jan-20 18:00N 33°28' W 117°42'0 0.0
2018-Jan-20 17:26N 33°28' W 117°42'0 0.0
2018-Jan-20 16:57N 33°28' W 117°42'0 0.0
2018-Jan-20 16:30N 33°28' W 117°42'0 0.0
2018-Jan-20 03:07N 33°28' W 117°42'0 0.0
2018-Jan-20 03:00N 33°28' W 117°42'0 0.0
2018-Jan-20 02:30N 33°28' W 117°42'0 0.0
2018-Jan-20 02:01N 33°28' W 117°42'713.9
2018-Jan-20 01:30N 33°26' W 117°50'0 0.2
2018-Jan-19 22:53N 33°25' W 117°50'719.3
2018-Jan-19 22:30N 33°28' W 117°42'0 0.0
2018-Jan-19 21:58N 33°28' W 117°42'0 0.0
2018-Jan-19 21:30N 33°28' W 117°42'2 5.0
2018-Jan-19 21:00N 33°27' W 117°44'7 2.3
2018-Jan-19 18:11N 33°25' W 117°52'425.8
2018-Jan-19 18:00N 33°26' W 117°47'5 9.3
2018-Jan-19 17:30N 33°28' W 117°42'0 0.1
2018-Jan-19 16:30N 33°28' W 117°41'0 0.0
2018-Jan-19 02:10N 33°28' W 117°42'0 0.0
2018-Jan-19 02:00N 33°28' W 117°42'815.8
2018-Jan-19 01:30N 33°25' W 117°51'1624.9
2018-Jan-19 00:52N 33°23' W 118°10'8 9.6
2018-Jan-18 23:59N 33°21' W 118°19'1 0.3
2018-Jan-18 19:06N 33°22' W 118°18'324.5
2018-Jan-18 19:00N 33°22' W 118°15'1224.7
2018-Jan-18 18:30N 33°24' W 118°01'1224.5
2018-Jan-18 18:01N 33°26' W 117°46'4 8.2
2018-Jan-18 17:30N 33°28' W 117°42'0 0.0
2018-Jan-18 17:00N 33°28' W 117°42'0 0.0
2018-Jan-18 03:06N 33°28' W 117°42'0 0.0
2018-Jan-18 03:00N 33°28' W 117°42'0 0.0
2018-Jan-18 02:30N 33°28' W 117°42'0 0.0
2018-Jan-18 02:00N 33°28' W 117°42'611.8
2018-Jan-18 01:30N 33°26' W 117°48'1626.6
2018-Jan-18 00:54N 33°23' W 118°07'10 7.4
2018-Jan-17 23:30N 33°21' W 118°20'  
2018-Jan-12 02:36N 33°28' W 117°42'0 0.0
2018-Jan-12 02:30N 33°28' W 117°42'0 0.0
2018-Jan-12 02:00N 33°28' W 117°42'714.8
2018-Jan-12 01:30N 33°25' W 117°50'2225.1
2018-Jan-12 00:38N 33°21' W 118°16'3 0.5
2018-Jan-11 19:03N 33°21' W 118°19'2425.9
2018-Jan-11 18:08N 33°26' W 117°51'425.8
2018-Jan-11 18:00N 33°27' W 117°47'4 3.8
2018-Jan-11 16:52N 33°28' W 117°42'0 0.0
2018-Jan-11 02:15N 33°28' W 117°42'0 0.0
2018-Jan-11 01:59N 33°28' W 117°42'714.7
2018-Jan-11 01:30N 33°26' W 117°50'  

Dump ship's entire track history